sensor_id;sensor_type;location;lat;lon;timestamp;temperature;humidity
13328;DHT22;6733;51.044;3.746;2022-12-18T00:01:14;-1.80;99.90
13328;DHT22;6733;51.044;3.746;2022-12-18T00:03:41;-1.80;99.90
13328;DHT22;6733;51.044;3.746;2022-12-18T00:06:08;-1.80;99.90
13328;DHT22;6733;51.044;3.746;2022-12-18T00:08:35;-1.90;99.90
13328;DHT22;6733;51.044;3.746;2022-12-18T00:11:06;-1.90;99.90
13328;DHT22;6733;51.044;3.746;2022-12-18T00:13:33;-1.90;99.90
13328;DHT22;6733;51.044;3.746;2022-12-18T00:16:04;-1.90;99.90
13328;DHT22;6733;51.044;3.746;2022-12-18T00:18:31;-2.00;99.90
13328;DHT22;6733;51.044;3.746;2022-12-18T00:21:03;-2.00;99.90
13328;DHT22;6733;51.044;3.746;2022-12-18T00:23:30;-2.00;99.90
13328;DHT22;6733;51.044;3.746;2022-12-18T00:26:06;-2.10;99.90
13328;DHT22;6733;51.044;3.746;2022-12-18T00:28:33;-2.10;99.90
13328;DHT22;6733;51.044;3.746;2022-12-18T00:31:04;-2.10;99.90
13328;DHT22;6733;51.044;3.746;2022-12-18T00:33:30;-2.10;99.90
13328;DHT22;6733;51.044;3.746;2022-12-18T00:36:07;-2.10;99.90
13328;DHT22;6733;51.044;3.746;2022-12-18T00:38:34;-2.10;99.90
13328;DHT22;6733;51.044;3.746;2022-12-18T00:41:00;-2.20;99.90
13328;DHT22;6733;51.044;3.746;2022-12-18T00:43:26;-2.20;99.90
13328;DHT22;6733;51.044;3.746;2022-12-18T00:45:53;-2.20;99.90
13328;DHT22;6733;51.044;3.746;2022-12-18T00:48:19;-2.20;99.90
13328;DHT22;6733;51.044;3.746;2022-12-18T00:50:45;-2.30;99.90
13328;DHT22;6733;51.044;3.746;2022-12-18T00:53:12;-2.30;99.90
13328;DHT22;6733;51.044;3.746;2022-12-18T00:55:39;-2.30;99.90
13328;DHT22;6733;51.044;3.746;2022-12-18T00:58:06;-2.30;99.90
13328;DHT22;6733;51.044;3.746;2022-12-18T01:00:32;-2.30;99.90
13328;DHT22;6733;51.044;3.746;2022-12-18T01:02:59;-2.30;99.90
13328;DHT22;6733;51.044;3.746;2022-12-18T01:05:25;-2.30;99.90
13328;DHT22;6733;51.044;3.746;2022-12-18T01:07:51;-2.30;99.90
13328;DHT22;6733;51.044;3.746;2022-12-18T01:10:18;-2.40;99.90
13328;DHT22;6733;51.044;3.746;2022-12-18T01:12:44;-2.40;99.90
13328;DHT22;6733;51.044;3.746;2022-12-18T01:15:12;-2.40;99.90
13328;DHT22;6733;51.044;3.746;2022-12-18T01:17:38;-2.40;99.90
13328;DHT22;6733;51.044;3.746;2022-12-18T01:20:05;-2.40;99.90
13328;DHT22;6733;51.044;3.746;2022-12-18T01:22:31;-2.40;99.90
13328;DHT22;6733;51.044;3.746;2022-12-18T01:24:57;-2.40;99.90
13328;DHT22;6733;51.044;3.746;2022-12-18T01:27:23;-2.50;99.90
13328;DHT22;6733;51.044;3.746;2022-12-18T01:29:50;-2.50;99.90
13328;DHT22;6733;51.044;3.746;2022-12-18T01:32:16;-2.50;99.90
13328;DHT22;6733;51.044;3.746;2022-12-18T01:34:42;-2.50;99.90
13328;DHT22;6733;51.044;3.746;2022-12-18T01:37:08;-2.50;99.90
13328;DHT22;6733;51.044;3.746;2022-12-18T01:39:34;-2.60;99.90
13328;DHT22;6733;51.044;3.746;2022-12-18T01:42:02;-2.60;99.90
13328;DHT22;6733;51.044;3.746;2022-12-18T01:45:01;-2.60;99.90
13328;DHT22;6733;51.044;3.746;2022-12-18T01:50:10;-2.60;99.90
13328;DHT22;6733;51.044;3.746;2022-12-18T01:52:42;-2.60;99.90
13328;DHT22;6733;51.044;3.746;2022-12-18T01:55:10;-2.60;99.90
13328;DHT22;6733;51.044;3.746;2022-12-18T01:57:38;-2.60;99.90
13328;DHT22;6733;51.044;3.746;2022-12-18T02:00:12;-2.70;99.90
13328;DHT22;6733;51.044;3.746;2022-12-18T02:02:40;-2.70;99.90
13328;DHT22;6733;51.044;3.746;2022-12-18T02:05:07;-2.60;99.90
13328;DHT22;6733;51.044;3.746;2022-12-18T02:08:01;-2.70;99.90
13328;DHT22;6733;51.044;3.746;2022-12-18T02:10:42;-2.70;99.90
13328;DHT22;6733;51.044;3.746;2022-12-18T02:13:42;-2.70;99.90
13328;DHT22;6733;51.044;3.746;2022-12-18T02:16:34;-2.70;99.90
13328;DHT22;6733;51.044;3.746;2022-12-18T02:19:20;-2.70;99.90
13328;DHT22;6733;51.044;3.746;2022-12-18T02:22:07;-2.80;99.90
13328;DHT22;6733;51.044;3.746;2022-12-18T02:25:05;-2.80;99.90
13328;DHT22;6733;51.044;3.746;2022-12-18T02:27:38;-2.80;99.90
13328;DHT22;6733;51.044;3.746;2022-12-18T02:30:06;-2.80;99.90
13328;DHT22;6733;51.044;3.746;2022-12-18T02:32:53;-2.80;99.90
13328;DHT22;6733;51.044;3.746;2022-12-18T02:35:49;-2.80;99.90
13328;DHT22;6733;51.044;3.746;2022-12-18T02:38:46;-2.90;99.90
13328;DHT22;6733;51.044;3.746;2022-12-18T02:41:41;-2.90;99.90
13328;DHT22;6733;51.044;3.746;2022-12-18T02:44:46;-2.90;99.90
13328;DHT22;6733;51.044;3.746;2022-12-18T02:47:43;-2.90;99.90
13328;DHT22;6733;51.044;3.746;2022-12-18T02:53:43;-2.90;99.90
13328;DHT22;6733;51.044;3.746;2022-12-18T02:56:21;-2.90;99.90
13328;DHT22;6733;51.044;3.746;2022-12-18T02:59:00;-2.90;99.90
13328;DHT22;6733;51.044;3.746;2022-12-18T03:01:33;-2.90;99.90
13328;DHT22;6733;51.044;3.746;2022-12-18T03:04:39;-2.90;99.90
13328;DHT22;6733;51.044;3.746;2022-12-18T03:07:11;-2.90;99.90
13328;DHT22;6733;51.044;3.746;2022-12-18T03:09:44;-2.90;99.90
13328;DHT22;6733;51.044;3.746;2022-12-18T03:12:43;-3.00;99.90
13328;DHT22;6733;51.044;3.746;2022-12-18T03:15:28;-3.00;99.90
13328;DHT22;6733;51.044;3.746;2022-12-18T03:18:01;-3.00;99.90
13328;DHT22;6733;51.044;3.746;2022-12-18T03:20:31;-3.00;99.90
13328;DHT22;6733;51.044;3.746;2022-12-18T03:23:12;-2.90;99.90
13328;DHT22;6733;51.044;3.746;2022-12-18T03:25:42;-3.00;99.90
13328;DHT22;6733;51.044;3.746;2022-12-18T03:28:16;-3.00;99.90
13328;DHT22;6733;51.044;3.746;2022-12-18T03:30:44;-3.00;99.90
13328;DHT22;6733;51.044;3.746;2022-12-18T03:33:18;-3.00;99.90
13328;DHT22;6733;51.044;3.746;2022-12-18T03:35:46;-3.00;99.90
13328;DHT22;6733;51.044;3.746;2022-12-18T03:38:13;-3.00;99.90
13328;DHT22;6733;51.044;3.746;2022-12-18T03:43:49;-3.00;99.90
13328;DHT22;6733;51.044;3.746;2022-12-18T03:46:35;-3.00;99.90
13328;DHT22;6733;51.044;3.746;2022-12-18T03:49:27;-3.00;99.90
13328;DHT22;6733;51.044;3.746;2022-12-18T03:52:24;-3.00;99.90
13328;DHT22;6733;51.044;3.746;2022-12-18T03:54:55;-3.00;99.90
13328;DHT22;6733;51.044;3.746;2022-12-18T03:57:25;-3.00;99.90
13328;DHT22;6733;51.044;3.746;2022-12-18T03:59:55;-3.10;99.90
13328;DHT22;6733;51.044;3.746;2022-12-18T04:02:24;-3.10;99.90
13328;DHT22;6733;51.044;3.746;2022-12-18T04:04:53;-3.10;99.90
13328;DHT22;6733;51.044;3.746;2022-12-18T04:07:21;-3.10;99.90
13328;DHT22;6733;51.044;3.746;2022-12-18T04:09:50;-3.10;99.90
13328;DHT22;6733;51.044;3.746;2022-12-18T04:12:18;-3.10;99.90
13328;DHT22;6733;51.044;3.746;2022-12-18T04:14:44;-3.10;99.90
13328;DHT22;6733;51.044;3.746;2022-12-18T04:17:10;-3.10;99.90
13328;DHT22;6733;51.044;3.746;2022-12-18T04:19:37;-3.10;99.90
13328;DHT22;6733;51.044;3.746;2022-12-18T04:22:03;-3.20;99.90
13328;DHT22;6733;51.044;3.746;2022-12-18T04:24:29;-3.20;99.90
13328;DHT22;6733;51.044;3.746;2022-12-18T04:26:55;-3.20;99.90
13328;DHT22;6733;51.044;3.746;2022-12-18T04:29:21;-3.20;99.90
13328;DHT22;6733;51.044;3.746;2022-12-18T04:31:47;-3.20;99.90
13328;DHT22;6733;51.044;3.746;2022-12-18T04:34:13;-3.10;99.90
13328;DHT22;6733;51.044;3.746;2022-12-18T04:36:39;-3.10;99.90
13328;DHT22;6733;51.044;3.746;2022-12-18T04:39:05;-3.10;99.90
13328;DHT22;6733;51.044;3.746;2022-12-18T04:41:31;-3.20;99.90
13328;DHT22;6733;51.044;3.746;2022-12-18T04:43:58;-3.10;99.90
13328;DHT22;6733;51.044;3.746;2022-12-18T04:46:24;-3.20;99.90
13328;DHT22;6733;51.044;3.746;2022-12-18T04:48:50;-3.20;99.90
13328;DHT22;6733;51.044;3.746;2022-12-18T04:51:16;-3.20;99.90
13328;DHT22;6733;51.044;3.746;2022-12-18T04:53:42;-3.20;99.90
13328;DHT22;6733;51.044;3.746;2022-12-18T04:56:11;-3.10;99.90
13328;DHT22;6733;51.044;3.746;2022-12-18T04:58:39;-3.10;99.90
13328;DHT22;6733;51.044;3.746;2022-12-18T05:01:06;-3.10;99.90
13328;DHT22;6733;51.044;3.746;2022-12-18T05:03:36;-3.10;99.90
13328;DHT22;6733;51.044;3.746;2022-12-18T05:06:03;-3.10;99.90
13328;DHT22;6733;51.044;3.746;2022-12-18T05:08:30;-3.10;99.90
13328;DHT22;6733;51.044;3.746;2022-12-18T05:13:27;-3.10;99.90
13328;DHT22;6733;51.044;3.746;2022-12-18T05:15:53;-3.10;99.90
13328;DHT22;6733;51.044;3.746;2022-12-18T05:18:19;-3.00;99.90
13328;DHT22;6733;51.044;3.746;2022-12-18T05:20:46;-3.00;99.90
13328;DHT22;6733;51.044;3.746;2022-12-18T05:23:12;-3.10;99.90
13328;DHT22;6733;51.044;3.746;2022-12-18T05:25:38;-3.00;99.90
13328;DHT22;6733;51.044;3.746;2022-12-18T05:28:04;-3.00;99.90
13328;DHT22;6733;51.044;3.746;2022-12-18T05:30:30;-3.00;99.90
13328;DHT22;6733;51.044;3.746;2022-12-18T05:32:56;-3.00;99.90
13328;DHT22;6733;51.044;3.746;2022-12-18T05:35:22;-3.00;99.90
13328;DHT22;6733;51.044;3.746;2022-12-18T05:37:49;-3.00;99.90
13328;DHT22;6733;51.044;3.746;2022-12-18T05:40:15;-3.00;99.90
13328;DHT22;6733;51.044;3.746;2022-12-18T05:42:41;-3.00;99.90
13328;DHT22;6733;51.044;3.746;2022-12-18T05:45:07;-3.00;99.90
13328;DHT22;6733;51.044;3.746;2022-12-18T05:47:33;-3.00;99.90
13328;DHT22;6733;51.044;3.746;2022-12-18T05:49:59;-3.00;99.90
13328;DHT22;6733;51.044;3.746;2022-12-18T05:52:26;-3.00;99.90
13328;DHT22;6733;51.044;3.746;2022-12-18T05:54:52;-3.00;99.90
13328;DHT22;6733;51.044;3.746;2022-12-18T05:57:18;-3.00;99.90
13328;DHT22;6733;51.044;3.746;2022-12-18T05:59:44;-3.00;99.90
13328;DHT22;6733;51.044;3.746;2022-12-18T06:02:10;-3.00;99.90
13328;DHT22;6733;51.044;3.746;2022-12-18T06:04:36;-3.00;99.90
13328;DHT22;6733;51.044;3.746;2022-12-18T06:07:02;-3.00;99.90
13328;DHT22;6733;51.044;3.746;2022-12-18T06:09:29;-3.00;99.90
13328;DHT22;6733;51.044;3.746;2022-12-18T06:11:55;-2.90;99.90
13328;DHT22;6733;51.044;3.746;2022-12-18T06:14:21;-2.90;99.90
13328;DHT22;6733;51.044;3.746;2022-12-18T06:16:47;-2.90;99.90
13328;DHT22;6733;51.044;3.746;2022-12-18T06:19:16;-2.90;99.90
13328;DHT22;6733;51.044;3.746;2022-12-18T06:21:43;-3.00;99.90
13328;DHT22;6733;51.044;3.746;2022-12-18T06:24:09;-2.90;99.90
13328;DHT22;6733;51.044;3.746;2022-12-18T06:26:37;-3.00;99.90
13328;DHT22;6733;51.044;3.746;2022-12-18T06:29:05;-3.00;99.90
13328;DHT22;6733;51.044;3.746;2022-12-18T06:31:31;-3.00;99.90
13328;DHT22;6733;51.044;3.746;2022-12-18T06:33:57;-3.00;99.90
13328;DHT22;6733;51.044;3.746;2022-12-18T06:36:23;-3.00;99.90
13328;DHT22;6733;51.044;3.746;2022-12-18T06:38:49;-2.90;99.90
13328;DHT22;6733;51.044;3.746;2022-12-18T06:41:18;-2.90;99.90
13328;DHT22;6733;51.044;3.746;2022-12-18T06:43:44;-2.90;99.90
13328;DHT22;6733;51.044;3.746;2022-12-18T06:46:11;-2.90;99.90
13328;DHT22;6733;51.044;3.746;2022-12-18T06:48:38;-2.90;99.90
13328;DHT22;6733;51.044;3.746;2022-12-18T06:51:04;-2.90;99.90
13328;DHT22;6733;51.044;3.746;2022-12-18T06:53:31;-2.90;99.90
13328;DHT22;6733;51.044;3.746;2022-12-18T06:56:05;-2.90;99.90
13328;DHT22;6733;51.044;3.746;2022-12-18T06:58:32;-2.80;99.90
13328;DHT22;6733;51.044;3.746;2022-12-18T07:01:06;-2.90;99.90
13328;DHT22;6733;51.044;3.746;2022-12-18T07:03:32;-2.90;99.90
13328;DHT22;6733;51.044;3.746;2022-12-18T07:05:58;-2.80;99.90
13328;DHT22;6733;51.044;3.746;2022-12-18T07:08:25;-2.80;99.90
13328;DHT22;6733;51.044;3.746;2022-12-18T07:10:51;-2.90;99.90
13328;DHT22;6733;51.044;3.746;2022-12-18T07:13:17;-2.90;99.90
13328;DHT22;6733;51.044;3.746;2022-12-18T07:15:43;-2.90;99.90
13328;DHT22;6733;51.044;3.746;2022-12-18T07:18:10;-2.90;99.90
13328;DHT22;6733;51.044;3.746;2022-12-18T07:20:36;-2.90;99.90
13328;DHT22;6733;51.044;3.746;2022-12-18T07:23:03;-2.90;99.90
13328;DHT22;6733;51.044;3.746;2022-12-18T07:25:35;-2.90;99.90
13328;DHT22;6733;51.044;3.746;2022-12-18T07:28:01;-2.90;99.90
13328;DHT22;6733;51.044;3.746;2022-12-18T07:30:27;-3.00;99.90
13328;DHT22;6733;51.044;3.746;2022-12-18T07:32:53;-2.90;99.90
13328;DHT22;6733;51.044;3.746;2022-12-18T07:35:19;-2.90;99.90
13328;DHT22;6733;51.044;3.746;2022-12-18T07:37:45;-2.90;99.90
13328;DHT22;6733;51.044;3.746;2022-12-18T07:40:12;-2.90;99.90
13328;DHT22;6733;51.044;3.746;2022-12-18T07:42:38;-2.90;99.90
13328;DHT22;6733;51.044;3.746;2022-12-18T07:45:05;-3.00;99.90
13328;DHT22;6733;51.044;3.746;2022-12-18T07:47:34;-2.90;99.90
13328;DHT22;6733;51.044;3.746;2022-12-18T07:50:00;-3.00;99.90
13328;DHT22;6733;51.044;3.746;2022-12-18T07:52:26;-2.90;99.90
13328;DHT22;6733;51.044;3.746;2022-12-18T07:54:52;-2.90;99.90
13328;DHT22;6733;51.044;3.746;2022-12-18T07:57:18;-2.90;99.90
13328;DHT22;6733;51.044;3.746;2022-12-18T07:59:44;-2.90;99.90
13328;DHT22;6733;51.044;3.746;2022-12-18T08:02:10;-2.90;99.90
13328;DHT22;6733;51.044;3.746;2022-12-18T08:04:36;-3.50;99.90
13328;DHT22;6733;51.044;3.746;2022-12-18T08:07:03;-4.00;99.90
13328;DHT22;6733;51.044;3.746;2022-12-18T08:09:29;-4.30;99.90
13328;DHT22;6733;51.044;3.746;2022-12-18T08:11:55;-4.50;99.90
13328;DHT22;6733;51.044;3.746;2022-12-18T08:14:21;-4.70;99.90
13328;DHT22;6733;51.044;3.746;2022-12-18T08:16:47;-4.80;99.90
13328;DHT22;6733;51.044;3.746;2022-12-18T08:19:13;-4.80;99.90
13328;DHT22;6733;51.044;3.746;2022-12-18T08:21:39;-4.70;99.90
13328;DHT22;6733;51.044;3.746;2022-12-18T08:24:06;-4.50;99.90
13328;DHT22;6733;51.044;3.746;2022-12-18T08:26:32;-4.50;99.90
13328;DHT22;6733;51.044;3.746;2022-12-18T08:28:59;-4.50;99.90
13328;DHT22;6733;51.044;3.746;2022-12-18T08:31:27;-4.40;99.90
13328;DHT22;6733;51.044;3.746;2022-12-18T08:33:54;-4.40;99.90
13328;DHT22;6733;51.044;3.746;2022-12-18T08:36:21;-4.40;99.90
13328;DHT22;6733;51.044;3.746;2022-12-18T08:38:47;-4.40;99.90
13328;DHT22;6733;51.044;3.746;2022-12-18T08:41:15;-4.30;99.90
13328;DHT22;6733;51.044;3.746;2022-12-18T08:43:42;-4.10;99.90
13328;DHT22;6733;51.044;3.746;2022-12-18T08:46:32;-4.00;99.90
13328;DHT22;6733;51.044;3.746;2022-12-18T08:48:58;-3.90;99.90
13328;DHT22;6733;51.044;3.746;2022-12-18T08:51:24;-3.90;99.90
13328;DHT22;6733;51.044;3.746;2022-12-18T08:53:51;-3.80;99.90
13328;DHT22;6733;51.044;3.746;2022-12-18T08:56:17;-3.80;99.90
13328;DHT22;6733;51.044;3.746;2022-12-18T08:58:43;-3.80;99.90
13328;DHT22;6733;51.044;3.746;2022-12-18T09:01:10;-3.70;99.90
13328;DHT22;6733;51.044;3.746;2022-12-18T09:03:38;-3.60;99.90
13328;DHT22;6733;51.044;3.746;2022-12-18T09:06:05;-3.60;99.90
13328;DHT22;6733;51.044;3.746;2022-12-18T09:08:31;-3.50;99.90
13328;DHT22;6733;51.044;3.746;2022-12-18T09:10:57;-3.50;99.90
13328;DHT22;6733;51.044;3.746;2022-12-18T09:13:23;-3.40;99.90
13328;DHT22;6733;51.044;3.746;2022-12-18T09:15:52;-3.30;99.90
13328;DHT22;6733;51.044;3.746;2022-12-18T09:18:20;-3.30;99.90
13328;DHT22;6733;51.044;3.746;2022-12-18T09:20:46;-3.20;99.90
13328;DHT22;6733;51.044;3.746;2022-12-18T09:23:13;-3.20;99.90
13328;DHT22;6733;51.044;3.746;2022-12-18T09:25:39;-3.10;99.90
13328;DHT22;6733;51.044;3.746;2022-12-18T09:28:11;-3.00;99.90
13328;DHT22;6733;51.044;3.746;2022-12-18T09:30:42;-3.00;99.90
13328;DHT22;6733;51.044;3.746;2022-12-18T09:33:08;-2.80;99.90
13328;DHT22;6733;51.044;3.746;2022-12-18T09:35:38;-2.80;99.90
13328;DHT22;6733;51.044;3.746;2022-12-18T09:38:05;-2.60;99.90
13328;DHT22;6733;51.044;3.746;2022-12-18T09:40:36;-2.60;99.90
13328;DHT22;6733;51.044;3.746;2022-12-18T09:43:06;-2.60;99.90
13328;DHT22;6733;51.044;3.746;2022-12-18T09:45:43;-2.60;99.90
13328;DHT22;6733;51.044;3.746;2022-12-18T09:48:36;-2.50;99.90
13328;DHT22;6733;51.044;3.746;2022-12-18T09:51:13;-2.60;99.90
13328;DHT22;6733;51.044;3.746;2022-12-18T09:53:55;-2.40;99.90
13328;DHT22;6733;51.044;3.746;2022-12-18T09:56:25;-2.50;99.90
13328;DHT22;6733;51.044;3.746;2022-12-18T09:58:58;-2.50;99.90
13328;DHT22;6733;51.044;3.746;2022-12-18T10:01:26;-2.30;99.90
13328;DHT22;6733;51.044;3.746;2022-12-18T10:03:54;-2.20;99.90
13328;DHT22;6733;51.044;3.746;2022-12-18T10:14:39;-2.10;99.90
13328;DHT22;6733;51.044;3.746;2022-12-18T10:20:18;-2.10;99.90
13328;DHT22;6733;51.044;3.746;2022-12-18T10:25:59;-1.90;99.90
13328;DHT22;6733;51.044;3.746;2022-12-18T10:28:26;-1.90;99.90
13328;DHT22;6733;51.044;3.746;2022-12-18T10:30:55;-1.90;99.90
13328;DHT22;6733;51.044;3.746;2022-12-18T10:33:23;-1.90;99.90
13328;DHT22;6733;51.044;3.746;2022-12-18T10:35:50;-2.00;99.90
13328;DHT22;6733;51.044;3.746;2022-12-18T10:43:24;-1.50;99.90
13328;DHT22;6733;51.044;3.746;2022-12-18T10:48:26;-1.40;99.90
13328;DHT22;6733;51.044;3.746;2022-12-18T10:50:53;-1.20;99.90
13328;DHT22;6733;51.044;3.746;2022-12-18T10:53:23;-1.30;99.90
13328;DHT22;6733;51.044;3.746;2022-12-18T10:55:50;-1.30;99.90
13328;DHT22;6733;51.044;3.746;2022-12-18T11:03:43;-1.50;99.90
13328;DHT22;6733;51.044;3.746;2022-12-18T11:06:18;-1.40;99.90
13328;DHT22;6733;51.044;3.746;2022-12-18T11:09:00;-1.30;99.90
13328;DHT22;6733;51.044;3.746;2022-12-18T11:11:27;-1.30;99.90
13328;DHT22;6733;51.044;3.746;2022-12-18T11:14:04;-1.30;99.90
13328;DHT22;6733;51.044;3.746;2022-12-18T11:16:34;-1.30;99.90
13328;DHT22;6733;51.044;3.746;2022-12-18T11:22:01;-1.30;99.90
13328;DHT22;6733;51.044;3.746;2022-12-18T11:24:31;-1.20;99.90
13328;DHT22;6733;51.044;3.746;2022-12-18T11:27:04;-1.00;99.90
13328;DHT22;6733;51.044;3.746;2022-12-18T11:29:38;-0.90;99.90
13328;DHT22;6733;51.044;3.746;2022-12-18T11:34:46;-0.80;99.90
13328;DHT22;6733;51.044;3.746;2022-12-18T11:37:15;-0.70;99.90
13328;DHT22;6733;51.044;3.746;2022-12-18T11:39:51;-0.60;99.90
13328;DHT22;6733;51.044;3.746;2022-12-18T11:42:38;-0.50;99.90
13328;DHT22;6733;51.044;3.746;2022-12-18T11:48:08;-0.30;99.90
13328;DHT22;6733;51.044;3.746;2022-12-18T11:50:56;-0.20;99.90
13328;DHT22;6733;51.044;3.746;2022-12-18T11:53:24;-0.30;99.90
13328;DHT22;6733;51.044;3.746;2022-12-18T12:01:50;0.00;99.90
13328;DHT22;6733;51.044;3.746;2022-12-18T12:07:04;-0.10;99.90
13328;DHT22;6733;51.044;3.746;2022-12-18T12:18:01;0.20;99.90
13328;DHT22;6733;51.044;3.746;2022-12-18T12:26:41;0.10;99.90
13328;DHT22;6733;51.044;3.746;2022-12-18T12:37:22;0.10;99.90
13328;DHT22;6733;51.044;3.746;2022-12-18T12:39:52;0.40;99.90
13328;DHT22;6733;51.044;3.746;2022-12-18T12:42:44;0.40;99.90
13328;DHT22;6733;51.044;3.746;2022-12-18T12:45:39;0.50;99.90
13328;DHT22;6733;51.044;3.746;2022-12-18T12:48:16;0.40;99.90
13328;DHT22;6733;51.044;3.746;2022-12-18T12:50:43;0.50;99.90
13328;DHT22;6733;51.044;3.746;2022-12-18T12:53:49;0.50;99.90
13328;DHT22;6733;51.044;3.746;2022-12-18T12:56:11;0.50;99.90
13328;DHT22;6733;51.044;3.746;2022-12-18T13:01:42;0.50;99.90
13328;DHT22;6733;51.044;3.746;2022-12-18T13:06:48;0.40;99.90
13328;DHT22;6733;51.044;3.746;2022-12-18T13:09:16;0.40;99.90
13328;DHT22;6733;51.044;3.746;2022-12-18T13:11:46;0.50;99.90
13328;DHT22;6733;51.044;3.746;2022-12-18T13:14:39;0.60;99.90
13328;DHT22;6733;51.044;3.746;2022-12-18T13:19:51;0.40;99.90
13328;DHT22;6733;51.044;3.746;2022-12-18T13:22:39;0.40;99.90
13328;DHT22;6733;51.044;3.746;2022-12-18T13:25:37;0.40;99.90
13328;DHT22;6733;51.044;3.746;2022-12-18T13:28:09;0.40;99.90
13328;DHT22;6733;51.044;3.746;2022-12-18T13:46:05;0.30;99.90
13328;DHT22;6733;51.044;3.746;2022-12-18T13:48:34;0.30;99.90
13328;DHT22;6733;51.044;3.746;2022-12-18T13:51:05;0.30;99.90
13328;DHT22;6733;51.044;3.746;2022-12-18T13:53:43;0.30;99.90
13328;DHT22;6733;51.044;3.746;2022-12-18T13:56:21;0.30;99.90
13328;DHT22;6733;51.044;3.746;2022-12-18T14:01:52;0.30;99.90
13328;DHT22;6733;51.044;3.746;2022-12-18T14:04:27;0.30;99.90
13328;DHT22;6733;51.044;3.746;2022-12-18T14:06:58;0.40;99.90
13328;DHT22;6733;51.044;3.746;2022-12-18T14:09:30;0.30;99.90
13328;DHT22;6733;51.044;3.746;2022-12-18T14:11:57;0.40;99.90
13328;DHT22;6733;51.044;3.746;2022-12-18T14:14:45;0.40;99.90
13328;DHT22;6733;51.044;3.746;2022-12-18T14:17:13;0.50;99.90
13328;DHT22;6733;51.044;3.746;2022-12-18T14:19:49;0.50;99.90
13328;DHT22;6733;51.044;3.746;2022-12-18T14:22:18;0.40;99.90
13328;DHT22;6733;51.044;3.746;2022-12-18T14:24:45;0.40;99.90
13328;DHT22;6733;51.044;3.746;2022-12-18T14:27:23;0.50;99.90
13328;DHT22;6733;51.044;3.746;2022-12-18T14:29:50;0.50;99.90
13328;DHT22;6733;51.044;3.746;2022-12-18T14:32:19;0.50;99.90
13328;DHT22;6733;51.044;3.746;2022-12-18T14:34:51;1.00;99.90
13328;DHT22;6733;51.044;3.746;2022-12-18T14:37:21;0.70;99.90
13328;DHT22;6733;51.044;3.746;2022-12-18T14:42:28;0.60;99.90
13328;DHT22;6733;51.044;3.746;2022-12-18T14:47:59;1.00;99.90
13328;DHT22;6733;51.044;3.746;2022-12-18T14:50:25;0.60;99.90
13328;DHT22;6733;51.044;3.746;2022-12-18T14:52:52;0.50;99.90
13328;DHT22;6733;51.044;3.746;2022-12-18T14:55:20;0.60;99.90
13328;DHT22;6733;51.044;3.746;2022-12-18T14:57:51;0.60;99.90
13328;DHT22;6733;51.044;3.746;2022-12-18T15:00:21;0.60;99.90
13328;DHT22;6733;51.044;3.746;2022-12-18T15:02:53;0.60;99.90
13328;DHT22;6733;51.044;3.746;2022-12-18T15:05:25;0.60;99.90
13328;DHT22;6733;51.044;3.746;2022-12-18T15:07:54;0.60;99.90
13328;DHT22;6733;51.044;3.746;2022-12-18T15:13:08;0.60;99.90
13328;DHT22;6733;51.044;3.746;2022-12-18T15:20:50;0.60;99.90
13328;DHT22;6733;51.044;3.746;2022-12-18T15:23:23;0.60;99.90
13328;DHT22;6733;51.044;3.746;2022-12-18T15:33:30;0.60;99.90
13328;DHT22;6733;51.044;3.746;2022-12-18T15:36:01;0.70;99.90
13328;DHT22;6733;51.044;3.746;2022-12-18T15:38:28;0.70;99.90
13328;DHT22;6733;51.044;3.746;2022-12-18T15:40:55;0.70;99.90
13328;DHT22;6733;51.044;3.746;2022-12-18T15:43:22;0.60;99.90
13328;DHT22;6733;51.044;3.746;2022-12-18T15:46:06;0.70;99.90
13328;DHT22;6733;51.044;3.746;2022-12-18T15:48:35;0.70;99.90
13328;DHT22;6733;51.044;3.746;2022-12-18T15:51:02;0.70;99.90
13328;DHT22;6733;51.044;3.746;2022-12-18T15:53:31;0.70;99.90
13328;DHT22;6733;51.044;3.746;2022-12-18T15:55:58;0.80;99.90
13328;DHT22;6733;51.044;3.746;2022-12-18T15:58:43;0.70;99.90
13328;DHT22;6733;51.044;3.746;2022-12-18T16:01:10;0.80;99.90
13328;DHT22;6733;51.044;3.746;2022-12-18T16:03:37;0.80;99.90
13328;DHT22;6733;51.044;3.746;2022-12-18T16:06:03;0.90;99.90
13328;DHT22;6733;51.044;3.746;2022-12-18T16:08:29;1.70;99.90
13328;DHT22;6733;51.044;3.746;2022-12-18T16:10:57;2.20;99.90
13328;DHT22;6733;51.044;3.746;2022-12-18T16:13:23;2.70;99.90
13328;DHT22;6733;51.044;3.746;2022-12-18T16:15:49;2.40;99.90
13328;DHT22;6733;51.044;3.746;2022-12-18T16:18:15;2.30;99.90
13328;DHT22;6733;51.044;3.746;2022-12-18T16:20:42;2.10;99.90
13328;DHT22;6733;51.044;3.746;2022-12-18T16:23:08;2.00;99.90
13328;DHT22;6733;51.044;3.746;2022-12-18T16:25:34;1.90;99.90
13328;DHT22;6733;51.044;3.746;2022-12-18T16:28:00;1.80;99.90
13328;DHT22;6733;51.044;3.746;2022-12-18T16:30:30;1.80;99.90
13328;DHT22;6733;51.044;3.746;2022-12-18T16:32:57;2.00;99.90
13328;DHT22;6733;51.044;3.746;2022-12-18T16:35:24;2.20;99.90
13328;DHT22;6733;51.044;3.746;2022-12-18T16:37:50;2.40;99.90
13328;DHT22;6733;51.044;3.746;2022-12-18T16:40:17;2.50;99.90
13328;DHT22;6733;51.044;3.746;2022-12-18T16:42:44;2.60;99.90
13328;DHT22;6733;51.044;3.746;2022-12-18T16:45:13;2.60;99.90
13328;DHT22;6733;51.044;3.746;2022-12-18T16:47:40;2.70;99.90
13328;DHT22;6733;51.044;3.746;2022-12-18T16:50:07;2.70;99.90
13328;DHT22;6733;51.044;3.746;2022-12-18T16:52:33;2.70;99.90
13328;DHT22;6733;51.044;3.746;2022-12-18T16:54:59;2.80;99.90
13328;DHT22;6733;51.044;3.746;2022-12-18T16:57:26;2.80;99.90
13328;DHT22;6733;51.044;3.746;2022-12-18T16:59:52;2.80;99.90
13328;DHT22;6733;51.044;3.746;2022-12-18T17:02:21;2.90;99.90
13328;DHT22;6733;51.044;3.746;2022-12-18T17:04:48;2.90;99.90
13328;DHT22;6733;51.044;3.746;2022-12-18T17:07:15;2.90;99.90
13328;DHT22;6733;51.044;3.746;2022-12-18T17:09:41;2.90;99.90
13328;DHT22;6733;51.044;3.746;2022-12-18T17:12:08;2.90;99.90
13328;DHT22;6733;51.044;3.746;2022-12-18T17:14:34;2.90;99.90
13328;DHT22;6733;51.044;3.746;2022-12-18T17:17:01;2.90;99.90
13328;DHT22;6733;51.044;3.746;2022-12-18T17:19:27;3.00;99.90
13328;DHT22;6733;51.044;3.746;2022-12-18T17:21:54;2.90;99.90
13328;DHT22;6733;51.044;3.746;2022-12-18T17:24:20;2.90;99.90
13328;DHT22;6733;51.044;3.746;2022-12-18T17:26:48;3.00;99.90
13328;DHT22;6733;51.044;3.746;2022-12-18T17:29:16;3.00;99.90
13328;DHT22;6733;51.044;3.746;2022-12-18T17:31:43;3.00;99.90
13328;DHT22;6733;51.044;3.746;2022-12-18T17:34:10;3.10;99.90
13328;DHT22;6733;51.044;3.746;2022-12-18T17:36:36;3.10;99.90
13328;DHT22;6733;51.044;3.746;2022-12-18T17:39:04;3.00;99.90
13328;DHT22;6733;51.044;3.746;2022-12-18T17:41:31;3.00;99.90
13328;DHT22;6733;51.044;3.746;2022-12-18T17:44:04;3.00;99.90
13328;DHT22;6733;51.044;3.746;2022-12-18T17:46:32;3.10;99.90
13328;DHT22;6733;51.044;3.746;2022-12-18T17:49:00;3.00;99.90
13328;DHT22;6733;51.044;3.746;2022-12-18T17:51:27;3.00;99.90
13328;DHT22;6733;51.044;3.746;2022-12-18T17:53:53;3.00;99.90
13328;DHT22;6733;51.044;3.746;2022-12-18T17:56:21;3.00;99.90
13328;DHT22;6733;51.044;3.746;2022-12-18T18:02:39;3.00;99.90
13328;DHT22;6733;51.044;3.746;2022-12-18T18:05:05;3.00;99.90
13328;DHT22;6733;51.044;3.746;2022-12-18T18:07:32;3.00;99.90
13328;DHT22;6733;51.044;3.746;2022-12-18T18:09:58;3.00;99.90
13328;DHT22;6733;51.044;3.746;2022-12-18T18:12:24;3.00;99.90
13328;DHT22;6733;51.044;3.746;2022-12-18T18:15:09;3.00;99.90
13328;DHT22;6733;51.044;3.746;2022-12-18T18:17:35;3.00;99.90
13328;DHT22;6733;51.044;3.746;2022-12-18T18:20:02;3.00;99.90